Time;durP1;ratioP1;P1;durP2;ratioP2;P2;SDS_P1;SDS_P2;PMS_P1;PMS_P2;Temp;Humidity;BMP_temperature;BMP_pressure;BME280_temperature;BME280_humidity;BME280_pressure;Samples;Min_cycle;Max_cycle;Signal;HPM_P1;HPM_P2
2023/01/23 00:00:38;;;;;;;5.97;4.45;;;;;;;16.42;50.02;100491.00;4985075;28;20129;-80
2023/01/23 00:03:04;;;;;;;6.85;4.88;;;;;;;16.43;50.05;100490.97;4973750;28;20031;-80
2023/01/23 00:05:29;;;;;;;7.32;5.45;;;;;;;16.44;49.96;100483.91;4974094;28;20381;-80
2023/01/23 00:07:54;;;;;;;6.78;4.90;;;;;;;16.46;50.09;100482.13;4973257;28;20038;-80
2023/01/23 00:10:20;;;;;;;7.10;4.68;;;;;;;16.42;50.21;100477.81;4972978;28;20023;-80
2023/01/23 00:12:49;;;;;;;7.82;5.25;;;;;;;16.42;50.00;100491.00;4973109;28;20031;-80
2023/01/23 00:15:15;;;;;;;7.25;5.15;;;;;;;16.43;50.24;100493.59;4974413;28;20069;-80
2023/01/23 00:17:41;;;;;;;6.57;4.78;;;;;;;16.44;50.13;100489.19;4973066;28;20477;-80
2023/01/23 00:20:10;;;;;;;7.60;4.50;;;;;;;16.41;50.07;100489.28;4989295;28;20041;-80
2023/01/23 00:22:35;;;;;;;7.15;5.03;;;;;;;16.43;49.98;100487.44;4993081;28;20022;-80
2023/01/23 00:25:01;;;;;;;6.68;4.93;;;;;;;16.42;50.18;100493.63;4990498;28;20026;-79
2023/01/23 00:27:27;;;;;;;6.70;4.88;;;;;;;16.40;50.17;100488.38;4974277;28;20388;-79
2023/01/23 00:29:52;;;;;;;6.85;5.22;;;;;;;16.34;50.11;100489.44;4974127;28;20031;-79
2023/01/23 00:32:19;;;;;;;7.68;5.00;;;;;;;16.38;50.20;100491.06;4986097;28;20027;-80
2023/01/23 00:34:45;;;;;;;7.43;4.82;;;;;;;16.41;50.21;100497.16;4993221;28;20030;-80
2023/01/23 00:37:11;;;;;;;7.30;4.93;;;;;;;16.37;50.01;100494.59;4992903;28;20484;-79
2023/01/23 00:39:36;;;;;;;7.03;4.97;;;;;;;16.38;50.06;100491.06;4993377;28;20032;-79
2023/01/23 00:42:02;;;;;;;7.53;5.03;;;;;;;16.40;50.00;100498.03;4982111;28;20039;-80
2023/01/23 00:44:28;;;;;;;6.93;4.90;;;;;;;16.37;49.71;100499.88;4973886;28;20114;-79
2023/01/23 00:46:53;;;;;;;7.35;5.15;;;;;;;16.38;49.87;100496.31;4973871;28;20045;-79
2023/01/23 00:49:19;;;;;;;7.20;4.97;;;;;;;16.42;50.12;100497.09;4973796;28;20059;-79
2023/01/23 00:51:45;;;;;;;7.70;5.43;;;;;;;16.37;50.00;100493.75;4979651;28;20023;-79
2023/01/23 00:54:11;;;;;;;7.20;5.10;;;;;;;16.33;49.98;100500.00;4992973;28;20031;-79
2023/01/23 00:56:36;;;;;;;7.57;4.97;;;;;;;16.34;50.07;100502.59;4993079;28;20036;-80
2023/01/23 00:59:02;;;;;;;7.88;4.88;;;;;;;16.37;50.19;100496.38;4990864;28;20050;-80
2023/01/23 01:01:30;;;;;;;7.55;5.25;;;;;;;16.35;49.85;100501.69;4978579;28;20113;-79
2023/01/23 01:03:56;;;;;;;7.43;5.13;;;;;;;16.32;50.24;100501.75;4990414;28;20026;-79
2023/01/23 01:06:21;;;;;;;7.47;5.40;;;;;;;16.32;50.00;100507.00;4973446;28;20038;-79
2023/01/23 01:08:47;;;;;;;6.93;4.53;;;;;;;16.34;50.05;100496.44;4974585;28;20432;-80
2023/01/23 01:11:13;;;;;;;5.82;4.63;;;;;;;16.32;49.94;100495.63;4976446;28;20035;-79
2023/01/23 01:13:38;;;;;;;6.80;4.90;;;;;;;16.31;50.12;100484.22;4991651;28;20033;-79
2023/01/23 01:16:05;;;;;;;6.18;4.30;;;;;;;16.34;50.22;100481.53;4991673;28;20118;-78
2023/01/23 01:18:30;;;;;;;6.57;4.55;;;;;;;16.34;50.07;100488.53;4992802;28;20027;-79
2023/01/23 01:20:57;;;;;;;6.38;4.45;;;;;;;16.37;50.14;100489.34;4992366;28;20025;-79
2023/01/23 01:23:22;;;;;;;7.55;4.88;;;;;;;16.33;49.98;100492.09;4992951;28;20030;-79
2023/01/23 01:25:48;;;;;;;5.95;4.30;;;;;;;16.33;49.87;100486.81;4991563;28;20404;-78
2023/01/23 01:28:13;;;;;;;7.10;4.78;;;;;;;16.32;50.12;100485.94;4992614;28;20034;-79
2023/01/23 01:30:39;;;;;;;6.10;4.35;;;;;;;16.32;50.08;100496.47;4992681;28;20033;-78
2023/01/23 01:33:05;;;;;;;7.03;4.65;;;;;;;16.32;50.00;100488.56;4975008;28;20106;-79
2023/01/23 01:35:31;;;;;;;6.78;4.75;;;;;;;16.33;50.15;100486.81;4973017;28;20508;-79
2023/01/23 01:37:56;;;;;;;7.05;4.53;;;;;;;16.30;49.93;100490.41;4973367;28;20397;-78
2023/01/23 01:40:25;;;;;;;6.10;4.10;;;;;;;16.31;49.95;100494.75;4973103;28;20027;-79
2023/01/23 01:43:17;;;;;;;6.68;4.53;;;;;;;16.32;50.16;100493.84;4973195;28;20030;-79
2023/01/23 01:46:07;;;;;;;7.63;4.57;;;;;;;16.33;49.91;100498.19;4973362;28;20089;-78
2023/01/23 01:48:51;;;;;;;6.15;4.20;;;;;;;16.31;50.14;100500.03;4975769;28;20041;-78
2023/01/23 01:51:35;;;;;;;6.47;4.25;;;;;;;16.30;49.97;100498.28;4979768;28;20144;-79
2023/01/23 01:54:06;;;;;;;5.78;4.32;;;;;;;16.28;50.21;100500.13;4996564;28;20035;-80
2023/01/23 01:56:38;;;;;;;6.25;4.18;;;;;;;16.29;49.80;100499.22;4996461;28;20472;-80
2023/01/23 01:59:05;;;;;;;6.05;4.50;;;;;;;16.28;50.02;100500.13;4995027;28;20130;-79
2023/01/23 02:01:31;;;;;;;6.35;4.38;;;;;;;16.26;49.94;100496.63;4981090;28;20511;-79
2023/01/23 02:03:57;;;;;;;6.53;4.57;;;;;;;16.27;49.84;100501.00;4996209;28;20057;-80
2023/01/23 02:06:23;;;;;;;6.90;4.10;;;;;;;16.29;50.01;100506.22;4992882;28;20027;-80
2023/01/23 02:09:03;;;;;;;6.65;4.57;;;;;;;16.28;50.14;100510.66;4989932;28;20034;-79
2023/01/23 02:11:29;;;;;;;6.30;4.13;;;;;;;16.28;49.96;100510.66;4978245;28;20432;-79
2023/01/23 02:13:55;;;;;;;6.53;4.53;;;;;;;16.28;50.25;100499.25;4979027;28;20014;-79
2023/01/23 02:16:27;;;;;;;6.30;4.50;;;;;;;16.28;50.09;100508.00;4985470;28;20030;-79
2023/01/23 02:18:57;;;;;;;6.88;4.55;;;;;;;16.27;49.96;100508.03;4981235;28;20023;-78
2023/01/23 02:21:23;;;;;;;6.63;4.53;;;;;;;16.27;50.22;100508.91;4995689;28;20406;-79
2023/01/23 02:23:59;;;;;;;7.18;4.43;;;;;;;16.25;49.68;100502.81;4995474;28;20109;-79
2023/01/23 02:26:31;;;;;;;6.97;4.50;;;;;;;16.25;50.07;100508.06;4984872;28;20106;-79
2023/01/23 02:28:58;;;;;;;6.00;4.20;;;;;;;16.24;49.74;100503.72;4976208;28;20381;-79
2023/01/23 02:31:24;;;;;;;6.43;4.03;;;;;;;16.23;49.94;100504.63;4976156;28;20436;-79
2023/01/23 02:33:52;;;;;;;6.20;4.10;;;;;;;16.24;49.83;100498.44;4975645;28;20507;-79
2023/01/23 02:36:21;;;;;;;5.90;4.03;;;;;;;16.26;50.15;100501.91;4975977;28;20106;-79
2023/01/23 02:38:53;;;;;;;6.03;4.03;;;;;;;16.24;50.11;100503.72;4975985;28;20027;-80
2023/01/23 02:41:24;;;;;;;6.28;4.22;;;;;;;16.23;49.75;100502.00;4993355;28;20030;-79
2023/01/23 02:43:52;;;;;;;6.75;4.43;;;;;;;16.23;49.94;100496.72;4995164;28;20026;-80
2023/01/23 02:46:19;;;;;;;6.20;4.00;;;;;;;16.23;49.86;100496.72;4985532;28;20034;-79
2023/01/23 02:48:47;;;;;;;6.53;4.40;;;;;;;16.24;50.04;100503.72;4975523;28;20563;-79
2023/01/23 02:51:12;;;;;;;5.97;4.13;;;;;;;16.22;49.98;100497.59;4975789;28;20027;-79
2023/01/23 02:53:38;;;;;;;5.90;4.20;;;;;;;16.24;50.13;100495.81;4975521;28;20038;-79
2023/01/23 02:56:04;;;;;;;6.00;4.05;;;;;;;16.22;49.90;100487.06;4982780;28;20507;-79
2023/01/23 03:01:13;;;;;;;5.95;4.22;;;;;;;16.27;49.93;100498.34;4995146;28;20112;-79
2023/01/23 03:03:41;;;;;;;6.57;3.92;;;;;;;16.21;49.81;100491.50;4994496;28;20050;-79
2023/01/23 03:06:07;;;;;;;6.65;4.40;;;;;;;16.21;49.92;100485.34;4987374;28;20101;-79
2023/01/23 03:08:35;;;;;;;6.00;4.05;;;;;;;16.23;50.01;100486.19;4977652;28;20404;-79
2023/01/23 03:11:01;;;;;;;6.38;4.00;;;;;;;16.22;49.82;100481.81;4975350;28;20046;-79
2023/01/23 03:13:27;;;;;;;6.53;4.18;;;;;;;16.19;49.91;100484.53;4975237;28;20023;-79
2023/01/23 03:15:52;;;;;;;5.95;4.03;;;;;;;16.21;49.89;100493.25;4989032;28;20401;-79
2023/01/23 03:18:18;;;;;;;6.20;4.47;;;;;;;16.18;50.11;100488.91;4975307;28;20114;-80
2023/01/23 03:20:44;;;;;;;5.93;4.25;;;;;;;16.21;49.93;100498.50;4994441;28;20041;-79
2023/01/23 03:23:10;;;;;;;6.60;4.63;;;;;;;16.20;50.24;100502.06;4994573;28;20157;-79
2023/01/23 03:25:35;;;;;;;6.50;4.50;;;;;;;16.17;50.06;100502.16;4994438;28;20019;-79
2023/01/23 03:28:01;;;;;;;6.50;4.55;;;;;;;16.20;49.97;100491.50;4994142;28;20018;-79
2023/01/23 03:30:26;;;;;;;6.22;3.90;;;;;;;16.16;50.06;100488.09;4994408;28;20030;-79
2023/01/23 03:32:52;;;;;;;5.90;3.78;;;;;;;16.18;50.21;100494.19;4994109;28;20034;-78
2023/01/23 03:35:21;;;;;;;5.90;3.70;;;;;;;16.20;49.79;100491.50;4994539;28;20029;-79
2023/01/23 03:37:48;;;;;;;6.20;4.25;;;;;;;16.18;49.92;100483.66;4994340;28;20833;-79
2023/01/23 03:43:05;;;;;;;5.88;4.50;;;;;;;16.19;49.94;100481.91;4994096;28;20149;-79
2023/01/23 03:45:31;;;;;;;6.00;4.00;;;;;;;16.17;49.80;100481.06;4991648;28;20054;-79
2023/01/23 03:47:57;;;;;;;5.63;4.07;;;;;;;16.18;50.06;100477.53;4973433;28;20070;-79
2023/01/23 03:50:22;;;;;;;6.15;4.20;;;;;;;16.16;49.93;100479.31;4974582;28;20038;-79
2023/01/23 03:52:48;;;;;;;6.00;3.88;;;;;;;16.18;49.88;100488.06;4974569;28;20138;-79
2023/01/23 03:55:14;;;;;;;6.68;4.35;;;;;;;16.17;49.98;100475.81;4974645;28;20042;-79
2023/01/23 03:57:39;;;;;;;6.70;4.30;;;;;;;16.16;49.80;100474.94;4992459;28;20113;-79
2023/01/23 04:00:05;;;;;;;5.95;3.88;;;;;;;16.15;50.20;100467.06;4993451;28;20053;-79
2023/01/23 04:02:32;;;;;;;6.25;4.10;;;;;;;16.16;50.15;100476.69;4992347;28;20046;-79
2023/01/23 04:04:57;;;;;;;5.78;3.75;;;;;;;16.15;49.83;100472.31;4993770;28;20439;-79
2023/01/23 04:07:23;;;;;;;5.60;3.92;;;;;;;16.19;49.96;100474.00;4975600;28;20027;-79
2023/01/23 04:09:48;;;;;;;6.53;4.18;;;;;;;16.16;49.80;100458.25;4972794;28;20031;-79
2023/01/23 04:12:14;;;;;;;6.57;4.13;;;;;;;16.14;49.86;100466.22;4974353;28;20023;-79
2023/01/23 04:14:39;;;;;;;6.40;4.70;;;;;;;16.14;49.79;100463.59;4984886;28;20555;-79
2023/01/23 04:17:07;;;;;;;6.38;4.32;;;;;;;16.14;49.87;100462.69;4977707;28;20062;-79
2023/01/23 04:19:32;;;;;;;5.90;4.10;;;;;;;16.14;49.76;100460.06;4984821;28;20019;-80
2023/01/23 04:21:58;;;;;;;5.50;3.95;;;;;;;16.13;50.08;100448.66;4992218;28;20026;-80
2023/01/23 04:24:24;;;;;;;5.95;4.13;;;;;;;16.15;49.77;100446.88;4994268;28;20480;-79
2023/01/23 04:26:49;;;;;;;5.70;3.80;;;;;;;16.14;49.79;100452.16;4992767;28;20117;-79
2023/01/23 04:29:15;;;;;;;5.88;3.50;;;;;;;16.17;49.90;100454.75;4991860;28;20113;-79
2023/01/23 04:31:42;;;;;;;8.05;4.75;;;;;;;16.12;49.55;100448.72;4993418;28;20431;-79
2023/01/23 04:34:07;;;;;;;6.47;4.38;;;;;;;16.13;49.67;100447.81;4993333;28;20042;-79
2023/01/23 04:36:33;;;;;;;6.07;4.03;;;;;;;16.14;49.66;100444.28;4983600;28;20484;-78
2023/01/23 04:38:59;;;;;;;6.82;4.25;;;;;;;16.13;49.63;100437.28;4973719;28;20050;-79
2023/01/23 04:41:27;;;;;;;5.88;4.07;;;;;;;16.12;49.76;100438.19;4972668;28;20065;-78
2023/01/23 04:43:52;;;;;;;5.95;4.25;;;;;;;16.09;49.93;100428.59;4973512;28;20027;-79
2023/01/23 04:46:18;;;;;;;6.13;3.95;;;;;;;16.15;49.74;100425.81;4981205;28;20472;-79
2023/01/23 04:48:43;;;;;;;6.78;3.97;;;;;;;16.13;49.91;100418.84;4993368;28;20034;-78
2023/01/23 04:51:09;;;;;;;5.72;3.88;;;;;;;16.14;49.86;100413.56;4993322;28;20034;-79
2023/01/23 04:53:34;;;;;;;5.40;3.65;;;;;;;16.09;50.02;100411.00;4993235;28;20030;-79
2023/01/23 04:56:00;;;;;;;6.70;4.28;;;;;;;16.09;49.57;100410.16;4988064;28;20421;-79
2023/01/23 04:58:26;;;;;;;5.80;3.88;;;;;;;16.09;49.77;100399.63;4973205;28;20041;-79
2023/01/23 05:00:52;;;;;;;5.57;3.80;;;;;;;16.10;49.60;100396.97;4975953;28;20027;-79
2023/01/23 05:03:18;;;;;;;6.32;3.90;;;;;;;16.10;49.70;100402.22;4973538;28;20026;-79
2023/01/23 05:05:44;;;;;;;5.95;3.90;;;;;;;16.09;49.74;100397.84;4976168;28;20031;-79
2023/01/23 05:08:10;;;;;;;6.35;3.70;;;;;;;16.10;49.69;100399.59;4991808;28;20035;-79
2023/01/23 05:10:37;;;;;;;6.07;3.90;;;;;;;16.10;49.86;100391.69;4992932;28;20085;-79
2023/01/23 05:13:03;;;;;;;5.75;4.30;;;;;;;16.09;49.55;100392.56;4992749;28;20400;-78
2023/01/23 05:15:28;;;;;;;5.30;4.03;;;;;;;16.08;49.90;100397.91;4975534;28;20027;-79
2023/01/23 05:17:54;;;;;;;6.00;3.90;;;;;;;16.06;49.84;100400.56;4987646;28;20027;-79
2023/01/23 05:20:19;;;;;;;5.75;3.75;;;;;;;16.07;49.73;100397.03;4990449;28;20037;-79
2023/01/23 05:22:54;;;;;;;6.00;3.60;;;;;;;16.10;49.68;100402.22;4994206;28;20427;-79
2023/01/23 05:25:22;;;;;;;6.47;4.30;;;;;;;16.09;49.50;100405.75;4995012;28;20498;-79
2023/01/23 05:27:48;;;;;;;6.07;4.30;;;;;;;16.07;49.81;100412.81;4985791;28;20026;-79
2023/01/23 05:30:14;;;;;;;5.80;4.00;;;;;;;16.07;49.78;100417.22;4996494;28;20033;-79
2023/01/23 05:32:39;;;;;;;6.30;4.40;;;;;;;16.07;49.49;100412.81;4996649;28;20030;-79
2023/01/23 05:35:05;;;;;;;6.32;3.90;;;;;;;16.03;49.72;100415.59;4985086;28;20385;-79
2023/01/23 05:37:31;;;;;;;6.28;4.00;;;;;;;16.06;49.50;100418.13;4983656;28;20504;-79
2023/01/23 05:39:56;;;;;;;6.35;4.22;;;;;;;16.05;49.65;100419.91;4995114;28;20052;-79
2023/01/23 05:42:21;;;;;;;5.70;3.60;;;;;;;16.01;49.48;100420.88;4996717;28;20018;-77
2023/01/23 05:44:47;;;;;;;5.32;3.45;;;;;;;16.02;49.51;100419.97;4996632;28;20421;-79
2023/01/23 05:47:13;;;;;;;6.40;4.05;;;;;;;16.02;49.59;100422.59;4992215;28;20026;-79
2023/01/23 05:49:38;;;;;;;6.28;4.07;;;;;;;16.04;49.64;100425.22;4981133;28;20485;-78
2023/01/23 05:52:04;;;;;;;5.30;3.70;;;;;;;16.02;49.40;100424.38;4992786;28;20015;-79
2023/01/23 05:54:29;;;;;;;6.07;4.18;;;;;;;16.04;49.66;100423.41;4996610;28;20511;-79
2023/01/23 05:56:55;;;;;;;6.30;3.95;;;;;;;16.04;49.72;100423.41;4988026;28;20038;-79
2023/01/23 05:59:20;;;;;;;6.47;3.97;;;;;;;16.06;49.74;100426.91;4987383;28;20508;-80
2023/01/23 06:01:45;;;;;;;6.75;4.10;;;;;;;16.00;49.48;100428.81;4996065;28;20126;-79
2023/01/23 06:04:14;;;;;;;5.80;4.03;;;;;;;16.03;49.37;100432.22;4995372;28;20046;-80
2023/01/23 06:06:41;;;;;;;5.30;3.67;;;;;;;16.02;49.69;100435.78;4996025;28;20427;-80
2023/01/23 06:09:06;;;;;;;6.72;4.13;;;;;;;16.04;49.58;100430.47;4975590;28;20041;-79
2023/01/23 06:11:32;;;;;;;6.03;3.17;;;;;;;16.00;49.72;100429.69;4975492;28;20404;-79
2023/01/23 06:13:57;;;;;;;6.28;4.32;;;;;;;16.04;49.53;100439.22;4976374;28;20510;-79
2023/01/23 06:16:22;;;;;;;6.53;4.07;;;;;;;16.01;49.38;100441.06;4976958;28;20141;-79
2023/01/23 06:18:48;;;;;;;6.60;4.55;;;;;;;15.95;49.77;100434.19;4992465;28;20022;-79
2023/01/23 06:21:14;;;;;;;6.55;4.22;;;;;;;15.99;49.76;100435.88;4993977;28;20030;-72
2023/01/23 06:23:39;;;;;;;7.47;4.05;;;;;;;15.97;49.79;100442.91;4993712;28;20480;-71
2023/01/23 06:26:04;;;;;;;8.18;4.22;;;;;;;15.95;49.43;100445.59;4983487;28;20021;-71
2023/01/23 06:28:30;;;;;;;6.57;4.25;;;;;;;15.98;49.73;100444.63;4992341;28;20027;-71
2023/01/23 06:31:00;;;;;;;6.07;4.05;;;;;;;15.95;49.52;100455.25;4995246;28;20041;-71
2023/01/23 06:33:25;;;;;;;7.25;3.95;;;;;;;15.97;49.57;100453.44;4990376;28;20144;-71
2023/01/23 06:35:57;;;;;;;6.20;4.15;;;;;;;15.96;49.65;100436.81;4988049;28;20026;-71
2023/01/23 06:38:22;;;;;;;6.70;4.13;;;;;;;15.95;49.83;100418.41;4990782;28;20030;-71
2023/01/23 06:40:48;;;;;;;5.78;3.53;;;;;;;15.92;49.82;100418.44;4993973;28;20101;-72
2023/01/23 06:43:13;;;;;;;7.25;4.40;;;;;;;15.93;49.79;100412.31;4991300;28;20038;-72
2023/01/23 06:45:43;;;;;;;5.93;3.95;;;;;;;15.88;49.92;100401.84;4984266;28;20101;-71
2023/01/23 06:48:08;;;;;;;6.15;4.20;;;;;;;15.92;49.61;100407.91;4986397;28;20050;-72
2023/01/23 06:50:33;;;;;;;6.32;4.13;;;;;;;15.91;49.79;100414.06;4995282;28;20032;-71
2023/01/23 06:52:59;;;;;;;6.20;3.88;;;;;;;15.93;49.48;100420.22;4994769;28;20407;-71
2023/01/23 06:55:24;;;;;;;6.63;3.90;;;;;;;15.92;49.73;100429.88;4994705;28;20101;-71
2023/01/23 06:57:50;;;;;;;6.00;3.60;;;;;;;15.91;49.84;100435.13;4986699;28;20073;-72
2023/01/23 07:00:15;;;;;;;6.57;4.30;;;;;;;15.89;49.94;100429.91;4975292;28;20182;-71
2023/01/23 07:02:41;;;;;;;5.80;3.65;;;;;;;15.91;49.87;100432.50;4975210;28;20429;-72
2023/01/23 07:05:07;;;;;;;6.63;3.90;;;;;;;15.90;49.70;100428.13;4977787;28;20042;-72
2023/01/23 07:07:32;;;;;;;5.78;3.72;;;;;;;15.93;49.93;100420.22;4981020;28;20417;-72
2023/01/23 07:09:58;;;;;;;7.35;4.15;;;;;;;15.91;49.95;100427.22;4994436;28;20105;-71
2023/01/23 07:12:23;;;;;;;7.15;4.15;;;;;;;15.91;49.61;100427.22;4994664;28;20037;-70
2023/01/23 07:14:48;;;;;;;6.03;3.80;;;;;;;15.90;49.89;100436.91;4994750;28;20113;-72
2023/01/23 07:17:14;;;;;;;9.05;4.20;;;;;;;15.91;49.82;100432.50;4991473;28;20023;-72
2023/01/23 07:19:39;;;;;;;6.40;4.25;;;;;;;15.91;49.67;100427.22;4986554;28;20022;-72
2023/01/23 07:22:05;;;;;;;4.95;3.40;;;;;;;15.88;49.64;100416.78;4994507;28;20112;-71
2023/01/23 07:24:31;;;;;;;5.45;3.35;;;;;;;15.89;49.92;100426.41;4994151;28;20030;-72
2023/01/23 07:26:57;;;;;;;7.47;4.22;;;;;;;15.88;49.85;100437.84;4992562;28;20030;-72
2023/01/23 07:29:22;;;;;;;5.82;3.78;;;;;;;15.84;49.88;100427.38;4974955;28;20049;-72
2023/01/23 07:31:48;;;;;;;7.00;4.60;;;;;;;15.88;49.59;100432.59;4974810;28;20034;-72
2023/01/23 07:34:14;;;;;;;5.88;3.63;;;;;;;15.84;49.68;100432.66;4974867;28;20519;-71
2023/01/23 07:36:39;;;;;;;6.25;4.00;;;;;;;15.88;49.64;100435.22;4974752;28;20038;-72
2023/01/23 07:39:05;;;;;;;6.60;3.80;;;;;;;15.84;49.68;100435.28;4991826;28;20030;-71
2023/01/23 07:41:30;;;;;;;5.93;3.92;;;;;;;15.87;49.73;100430.88;4994154;28;20514;-71
2023/01/23 07:43:55;;;;;;;6.38;3.75;;;;;;;15.89;49.65;100434.31;4994165;28;20471;-72
2023/01/23 07:46:24;;;;;;;6.20;3.92;;;;;;;15.84;49.72;100437.91;4993550;28;20058;-71
2023/01/23 07:48:49;;;;;;;6.80;4.28;;;;;;;15.86;49.57;100440.50;4978646;28;20018;-72
2023/01/23 07:51:15;;;;;;;6.32;3.90;;;;;;;15.84;49.65;100440.53;4974665;28;20033;-71
2023/01/23 07:53:40;;;;;;;6.07;4.05;;;;;;;15.87;49.91;100447.50;4974209;28;20481;-71
2023/01/23 07:56:07;;;;;;;6.38;3.85;;;;;;;15.84;49.58;100448.44;4974575;28;20054;-71
2023/01/23 07:58:33;;;;;;;5.72;3.70;;;;;;;15.80;49.36;100441.50;4987321;28;20030;-71
2023/01/23 08:00:59;;;;;;;6.10;3.92;;;;;;;15.80;49.84;100444.13;4992622;28;20076;-72
2023/01/23 08:03:27;;;;;;;5.97;3.83;;;;;;;15.81;49.80;100437.13;4993802;28;20080;-72
2023/01/23 08:05:53;;;;;;;5.78;3.65;;;;;;;15.82;49.76;100433.59;4993843;28;20033;-72
2023/01/23 08:08:18;;;;;;;6.38;3.90;;;;;;;15.79;49.88;100434.53;4982331;28;20035;-72
2023/01/23 08:10:44;;;;;;;5.72;4.05;;;;;;;15.80;49.73;100425.72;4974447;28;20038;-71
2023/01/23 08:13:10;;;;;;;6.03;3.83;;;;;;;15.80;49.78;100416.97;4974475;28;20041;-72
2023/01/23 08:15:37;;;;;;;6.18;3.60;;;;;;;15.81;49.95;100418.69;4974423;28;20105;-71
2023/01/23 08:18:03;;;;;;;6.43;3.90;;;;;;;15.80;50.03;100417.81;4982870;28;20448;-71
2023/01/23 08:20:28;;;;;;;5.60;3.80;;;;;;;15.81;50.03;100414.31;4993624;28;20151;-72
2023/01/23 08:22:55;;;;;;;5.30;3.67;;;;;;;15.79;49.51;100418.72;4993179;28;20035;-72
2023/01/23 08:25:20;;;;;;;5.72;3.92;;;;;;;15.80;49.66;100414.34;4993468;28;20046;-71
2023/01/23 08:27:46;;;;;;;6.38;4.05;;;;;;;15.78;49.80;100424.91;4987228;28;20049;-72
2023/01/23 08:30:11;;;;;;;5.68;3.60;;;;;;;15.79;49.69;100423.16;4975951;28;20043;-72
2023/01/23 08:32:37;;;;;;;6.00;3.95;;;;;;;15.76;49.84;100431.97;4975549;28;20070;-72
2023/01/23 08:35:03;;;;;;;6.97;3.55;;;;;;;15.77;49.96;100436.34;4974012;28;20569;-72
2023/01/23 08:37:29;;;;;;;6.00;3.88;;;;;;;15.77;49.72;100436.34;4977356;28;20029;-71
2023/01/23 08:39:54;;;;;;;5.78;3.90;;;;;;;15.75;49.85;100447.78;4993338;28;20018;-72
2023/01/23 08:42:20;;;;;;;5.43;3.58;;;;;;;15.75;49.91;100448.69;4993225;28;20033;-72
2023/01/23 08:44:45;;;;;;;5.15;3.75;;;;;;;15.78;49.78;100448.59;4993260;28;20081;-72
2023/01/23 08:47:11;;;;;;;6.53;4.10;;;;;;;15.77;49.88;100445.97;4991862;28;20030;-72
2023/01/23 08:49:36;;;;;;;7.20;4.15;;;;;;;15.80;49.61;100440.66;4973928;28;20113;-71
2023/01/23 08:52:04;;;;;;;6.93;3.92;;;;;;;15.75;49.75;100443.41;4973406;28;20117;-69
2023/01/23 08:54:29;;;;;;;6.65;4.32;;;;;;;15.75;49.85;100448.69;4973718;28;20485;-71
2023/01/23 08:56:54;;;;;;;5.35;3.42;;;;;;;15.77;49.78;100446.84;4973885;28;20049;-71
2023/01/23 08:59:20;;;;;;;6.18;3.97;;;;;;;15.79;49.58;100445.03;4979827;28;20143;-70
2023/01/23 09:01:46;;;;;;;5.10;3.53;;;;;;;15.71;49.65;100433.84;4977716;28;20039;-73
2023/01/23 09:04:12;;;;;;;5.72;3.50;;;;;;;15.75;49.72;100437.28;4990945;28;20022;-71
2023/01/23 09:06:38;;;;;;;5.20;3.42;;;;;;;15.75;49.88;100430.25;4980423;28;20102;-70
2023/01/23 09:09:04;;;;;;;5.80;3.80;;;;;;;15.76;49.86;100444.25;4997375;28;20030;-72
2023/01/23 09:11:29;;;;;;;7.15;3.88;;;;;;;15.73;49.67;100450.47;4998254;28;20025;-71
2023/01/23 09:13:55;;;;;;;6.28;3.83;;;;;;;15.72;49.79;100443.47;4982806;28;20389;-71
2023/01/23 09:16:20;;;;;;;5.40;3.45;;;;;;;15.71;49.70;100445.22;4977459;28;20023;-71
2023/01/23 09:18:46;;;;;;;5.68;3.60;;;;;;;15.73;49.62;100449.59;4981717;28;20029;-72
2023/01/23 09:21:14;;;;;;;5.93;3.70;;;;;;;15.73;49.58;100449.59;4996367;28;20030;-71
2023/01/23 09:23:40;;;;;;;5.63;3.53;;;;;;;15.71;49.63;100439.13;4984808;28;20389;-71
2023/01/23 09:26:08;;;;;;;6.28;4.00;;;;;;;15.71;49.81;100447.00;4977313;28;20033;-71
2023/01/23 09:28:39;;;;;;;7.07;4.22;;;;;;;15.70;50.00;100451.38;4977176;28;20038;-71
2023/01/23 09:31:09;;;;;;;5.68;3.55;;;;;;;15.69;49.82;100446.19;4977117;28;20374;-72
2023/01/23 09:33:35;;;;;;;5.45;3.90;;;;;;;15.72;49.79;100451.38;4987807;28;20133;-72
2023/01/23 09:36:01;;;;;;;5.28;3.30;;;;;;;15.69;49.76;100454.09;4996638;28;20141;-72
2023/01/23 09:38:27;;;;;;;5.28;3.33;;;;;;;15.69;49.60;100460.19;4978289;28;20093;-71
2023/01/23 09:40:56;;;;;;;6.45;4.13;;;;;;;15.71;49.48;100457.53;4976795;28;20042;-71
2023/01/23 09:43:36;;;;;;;6.18;3.45;;;;;;;15.65;49.89;100447.16;4986066;28;20022;-72
2023/01/23 09:46:09;;;;;;;6.47;3.78;;;;;;;15.67;49.86;100447.97;4996519;28;20030;-71
2023/01/23 09:48:54;;;;;;;5.90;3.35;;;;;;;15.67;49.71;100455.88;4994821;28;20030;-71
2023/01/23 09:51:19;;;;;;;6.20;3.90;;;;;;;15.68;49.85;100457.59;4996505;28;20113;-72
2023/01/23 09:53:45;;;;;;;5.13;3.53;;;;;;;15.69;49.55;100449.66;4983952;28;20513;-71
2023/01/23 09:56:40;;;;;;;6.25;4.22;;;;;;;15.67;49.80;100453.22;4976702;28;20038;-71
2023/01/23 09:59:30;;;;;;;6.38;3.97;;;;;;;15.65;49.62;100455.03;4976678;28;20121;-71
2023/01/23 10:01:56;;;;;;;6.55;3.65;;;;;;;15.65;49.65;100452.41;4975357;28;20500;-71
2023/01/23 10:04:22;;;;;;;5.75;3.78;;;;;;;15.65;49.78;100452.41;4993152;28;20030;-70
2023/01/23 10:07:08;;;;;;;4.88;3.33;;;;;;;15.64;49.70;100456.78;4996085;28;20023;-70
2023/01/23 10:09:45;;;;;;;5.32;3.70;;;;;;;15.63;49.80;100460.31;4995378;28;20030;-71
2023/01/23 10:12:27;;;;;;;6.13;3.75;;;;;;;15.66;49.67;100459.41;4981095;28;20073;-71
2023/01/23 10:15:00;;;;;;;4.88;3.42;;;;;;;15.64;49.85;100461.22;4976338;28;20019;-72
2023/01/23 10:17:28;;;;;;;5.78;3.75;;;;;;;15.65;49.58;100450.63;4976027;28;20046;-71
2023/01/23 10:20:32;;;;;;;6.20;3.95;;;;;;;15.65;49.81;100441.88;4989777;28;20034;-72
2023/01/23 10:23:29;;;;;;;5.22;3.45;;;;;;;15.63;49.61;100430.50;4995305;28;20027;-72
2023/01/23 10:25:55;;;;;;;5.07;3.42;;;;;;;15.64;49.73;100427.00;4995642;28;20050;-71
2023/01/23 10:28:37;;;;;;;5.55;3.55;;;;;;;15.63;49.66;100433.13;4995529;28;20112;-71
2023/01/23 10:31:18;;;;;;;6.03;3.72;;;;;;;15.65;49.80;100426.94;4995519;28;20026;-71
2023/01/23 10:34:18;;;;;;;5.55;3.65;;;;;;;15.64;50.01;100425.22;4983532;28;20038;-72
2023/01/23 10:37:12;;;;;;;5.53;3.53;;;;;;;15.62;49.66;100436.69;4976148;28;20045;-71
2023/01/23 10:39:40;;;;;;;5.95;3.38;;;;;;;15.64;49.77;100425.22;4975889;28;20102;-71
2023/01/23 10:42:12;;;;;;;5.93;3.67;;;;;;;15.60;49.82;100417.44;4975871;28;20034;-71
2023/01/23 10:44:38;;;;;;;5.50;3.42;;;;;;;15.66;49.93;100422.56;4994320;28;20396;-71
2023/01/23 10:47:15;;;;;;;5.57;3.45;;;;;;;15.61;49.83;100417.41;4995000;28;20042;-72
2023/01/23 10:49:44;;;;;;;5.43;3.60;;;;;;;15.62;49.70;100415.63;4995259;28;20029;-71
2023/01/23 10:52:41;;;;;;;5.82;3.63;;;;;;;15.62;49.68;100410.38;4993826;28;20396;-72
2023/01/23 10:55:19;;;;;;;5.50;3.58;;;;;;;15.61;49.68;100408.66;4969566;28;20108;-71
2023/01/23 10:57:47;;;;;;;5.40;3.45;;;;;;;15.61;49.68;100408.66;4975581;28;20039;-70
2023/01/23 11:00:19;;;;;;;5.30;3.38;;;;;;;15.63;49.86;100414.72;4975373;28;20081;-71
2023/01/23 11:02:44;;;;;;;4.72;3.08;;;;;;;15.62;49.54;100415.63;4978102;28;20026;-72
2023/01/23 11:05:34;;;;;;;6.97;3.92;;;;;;;15.61;49.75;100408.66;4994851;28;20037;-72
2023/01/23 11:07:59;;;;;;;5.30;3.33;;;;;;;15.64;49.51;100419.09;4991367;28;20408;-71
2023/01/23 11:10:25;;;;;;;4.95;3.20;;;;;;;15.62;49.81;100413.00;4994133;28;20035;-71
2023/01/23 11:12:54;;;;;;;5.70;3.10;;;;;;;15.63;49.74;100409.47;4978898;28;20026;-72
2023/01/23 11:15:19;;;;;;;5.25;3.47;;;;;;;15.57;49.74;100398.22;4994437;28;20440;-71
2023/01/23 11:17:45;;;;;;;5.97;3.90;;;;;;;15.62;49.65;100405.09;4994598;28;20161;-70
2023/01/23 11:20:38;;;;;;;5.32;3.38;;;;;;;15.56;49.79;100406.97;4993708;28;20080;-71
2023/01/23 11:23:17;;;;;;;5.72;3.65;;;;;;;15.54;49.70;100398.25;4994388;28;20427;-71
2023/01/23 11:25:51;;;;;;;5.47;3.58;;;;;;;15.56;49.52;100396.44;4994479;28;20114;-72
2023/01/23 11:28:29;;;;;;;7.10;3.80;;;;;;;15.59;49.74;100390.25;4994461;28;20034;-71
2023/01/23 11:31:09;;;;;;;4.50;3.15;;;;;;;15.58;49.77;100383.28;4994095;28;20392;-72
2023/01/23 11:33:46;;;;;;;5.30;3.55;;;;;;;15.57;49.55;100386.81;4984709;28;20019;-71